createdAt,value
2022-10-05T00:00:50.370Z,10.57
2022-10-05T00:03:21.153Z,10.66
2022-10-05T00:05:51.460Z,10.67
2022-10-05T00:08:24.458Z,10.48
2022-10-05T00:10:56.907Z,10.50
2022-10-05T00:13:29.147Z,10.53
2022-10-05T00:16:02.626Z,10.38
2022-10-05T00:18:32.441Z,10.41
2022-10-05T00:21:02.863Z,10.13
2022-10-05T00:23:34.663Z,9.95
2022-10-05T00:26:14.546Z,10.24
2022-10-05T00:28:44.385Z,10.43
2022-10-05T00:31:19.589Z,10.33
2022-10-05T00:33:49.952Z,10.11
2022-10-05T00:36:20.456Z,10.23
2022-10-05T00:38:51.275Z,10.21
2022-10-05T00:41:27.472Z,10.37
2022-10-05T00:44:24.003Z,10.48
2022-10-05T00:47:00.126Z,10.24
2022-10-05T00:49:45.131Z,10.25
2022-10-05T00:52:25.893Z,10.16
2022-10-05T00:55:06.127Z,10.08
2022-10-05T00:57:50.603Z,10.04
2022-10-05T01:00:22.905Z,9.97
2022-10-05T01:03:00.036Z,9.99
2022-10-05T01:05:47.436Z,10.00
2022-10-05T01:08:29.679Z,10.12
2022-10-05T01:11:10.114Z,10.06
2022-10-05T01:13:51.620Z,10.11
2022-10-05T01:16:29.668Z,10.22
2022-10-05T01:19:05.006Z,10.18
2022-10-05T01:21:41.894Z,10.21
2022-10-05T01:24:39.477Z,10.30
2022-10-05T01:27:18.736Z,10.25
2022-10-05T01:29:57.656Z,9.98
2022-10-05T01:32:37.447Z,9.94
2022-10-05T01:35:19.044Z,9.97
2022-10-05T01:38:00.212Z,9.91
2022-10-05T01:40:39.443Z,9.91
2022-10-05T01:43:14.863Z,9.96
2022-10-05T01:46:00.221Z,9.96
2022-10-05T01:48:42.237Z,9.96
2022-10-05T01:51:21.336Z,9.93
2022-10-05T01:54:04.207Z,10.00
2022-10-05T01:56:42.559Z,10.04
2022-10-05T01:59:21.928Z,10.19
2022-10-05T02:02:00.183Z,10.17
2022-10-05T02:05:01.085Z,10.02
2022-10-05T02:07:29.052Z,9.98
2022-10-05T02:10:03.724Z,10.13
2022-10-05T02:12:40.231Z,9.83
2022-10-05T02:15:16.713Z,9.89
2022-10-05T02:17:53.221Z,9.99
2022-10-05T02:20:27.847Z,9.96
2022-10-05T02:23:01.229Z,9.84
2022-10-05T02:25:34.202Z,9.67
2022-10-05T02:28:07.721Z,9.73
2022-10-05T02:30:44.489Z,9.60
2022-10-05T02:33:25.103Z,9.79
2022-10-05T02:35:54.846Z,9.77
2022-10-05T02:38:37.784Z,9.77
2022-10-05T02:41:18.060Z,9.75
2022-10-05T02:43:55.745Z,9.79
2022-10-05T02:46:36.803Z,9.89
2022-10-05T02:49:21.294Z,9.74
2022-10-05T02:52:01.125Z,9.65
2022-10-05T02:54:44.954Z,9.73
2022-10-05T02:57:22.398Z,9.89
2022-10-05T03:00:01.324Z,9.77
2022-10-05T03:02:36.848Z,9.59
2022-10-05T03:05:15.782Z,9.73
2022-10-05T03:07:57.461Z,9.64
2022-10-05T03:10:37.225Z,9.56
2022-10-05T03:13:12.567Z,9.62
2022-10-05T03:15:57.911Z,9.63
2022-10-05T03:18:39.550Z,9.59
2022-10-05T03:21:26.566Z,9.42
2022-10-05T03:24:10.245Z,9.59
2022-10-05T03:26:49.588Z,9.59
2022-10-05T03:29:30.829Z,9.35
2022-10-05T03:32:09.576Z,9.40
2022-10-05T03:34:45.362Z,9.10
2022-10-05T03:37:22.844Z,9.01
2022-10-05T03:39:59.417Z,8.83
2022-10-05T03:42:39.331Z,8.68
2022-10-05T03:45:16.634Z,8.64
2022-10-05T03:47:58.993Z,8.56
2022-10-05T03:50:40.800Z,8.69
2022-10-05T03:53:20.351Z,8.58
2022-10-05T03:55:54.894Z,8.60
2022-10-05T03:58:30.413Z,8.57
2022-10-05T04:01:05.491Z,8.60
2022-10-05T04:03:39.926Z,8.56
2022-10-05T04:06:15.505Z,8.60
2022-10-05T04:08:53.544Z,8.70
2022-10-05T04:11:28.523Z,8.60
2022-10-05T04:14:03.653Z,8.62
2022-10-05T04:16:38.576Z,8.77
2022-10-05T04:19:17.815Z,8.68
2022-10-05T04:21:54.641Z,8.88
2022-10-05T04:24:35.033Z,8.81
2022-10-05T04:27:10.258Z,8.86
2022-10-05T04:29:45.062Z,8.79
2022-10-05T04:32:39.636Z,8.70
2022-10-05T04:35:41.193Z,8.66
2022-10-05T04:38:26.647Z,8.80
2022-10-05T04:41:13.822Z,8.68
2022-10-05T04:43:55.655Z,8.92
2022-10-05T04:46:39.728Z,9.01
2022-10-05T04:49:22.958Z,8.80
2022-10-05T04:51:59.523Z,8.71
2022-10-05T04:54:47.258Z,8.70
2022-10-05T04:57:26.597Z,8.79
2022-10-05T05:00:09.122Z,8.88
2022-10-05T05:02:54.490Z,8.98
2022-10-05T05:05:48.408Z,8.97
2022-10-05T05:08:42.986Z,8.87
2022-10-05T05:11:30.074Z,9.03
2022-10-05T05:14:23.089Z,8.99
2022-10-05T05:17:04.166Z,9.00
2022-10-05T05:19:44.842Z,8.74
2022-10-05T05:22:23.424Z,8.87
2022-10-05T05:25:15.942Z,8.64
2022-10-05T05:27:50.380Z,8.51
2022-10-05T05:30:26.792Z,8.43
2022-10-05T05:33:15.499Z,8.65
2022-10-05T05:36:03.553Z,8.71
2022-10-05T05:38:37.617Z,8.74
2022-10-05T05:41:12.390Z,8.86
2022-10-05T05:44:06.306Z,8.69
2022-10-05T05:49:43.261Z,9.01
2022-10-05T05:52:19.071Z,8.80
2022-10-05T05:54:57.804Z,8.81
2022-10-05T05:57:32.788Z,8.65
2022-10-05T06:00:08.234Z,8.81
2022-10-05T06:02:53.636Z,8.90
2022-10-05T06:05:33.461Z,8.91
2022-10-05T06:08:14.960Z,8.83
2022-10-05T06:10:51.074Z,8.77
2022-10-05T06:13:25.199Z,8.73
2022-10-05T06:15:59.246Z,8.67
2022-10-05T06:18:34.786Z,8.72
2022-10-05T06:21:09.901Z,8.65
2022-10-05T06:23:46.894Z,8.94
2022-10-05T06:26:27.881Z,8.79
2022-10-05T06:29:03.761Z,8.87
2022-10-05T06:31:53.252Z,8.91
2022-10-05T06:34:46.865Z,8.99
2022-10-05T06:37:23.180Z,9.24
2022-10-05T06:40:17.996Z,10.45
2022-10-05T06:43:02.906Z,12.38
2022-10-05T06:45:45.221Z,13.52
2022-10-05T06:48:23.001Z,15.23
2022-10-05T06:51:03.472Z,16.79
2022-10-05T06:53:38.444Z,18.14
2022-10-05T06:56:14.179Z,18.39
2022-10-05T06:58:58.636Z,18.40
2022-10-05T07:01:39.176Z,17.97
2022-10-05T07:04:24.315Z,18.37
2022-10-05T07:07:02.116Z,17.59
2022-10-05T07:09:44.106Z,17.32
2022-10-05T07:12:33.476Z,16.90
2022-10-05T07:15:22.370Z,17.40
2022-10-05T07:18:02.880Z,17.86
2022-10-05T07:20:36.628Z,17.92
2022-10-05T07:23:19.891Z,17.07
2022-10-05T07:25:53.329Z,16.16
2022-10-05T07:28:31.023Z,16.16
2022-10-05T07:31:08.485Z,16.10
2022-10-05T07:33:46.644Z,16.51
2022-10-05T07:36:39.392Z,16.28
2022-10-05T07:39:16.397Z,15.82
2022-10-05T07:41:48.455Z,15.35
2022-10-05T07:44:26.055Z,15.73
2022-10-05T07:46:59.317Z,15.84
2022-10-05T07:49:39.679Z,15.60
2022-10-05T07:52:16.050Z,15.40
2022-10-05T07:55:02.141Z,15.15
2022-10-05T07:57:42.343Z,15.18
2022-10-05T08:00:19.317Z,15.27
2022-10-05T08:02:53.529Z,15.24
2022-10-05T08:05:29.000Z,15.13
2022-10-05T08:08:02.948Z,15.10
2022-10-05T08:10:43.300Z,14.93
2022-10-05T08:13:19.757Z,15.12
2022-10-05T08:15:54.034Z,15.39
2022-10-05T08:18:39.402Z,15.34
2022-10-05T08:21:12.165Z,15.58
2022-10-05T08:23:49.746Z,15.63
2022-10-05T08:26:31.674Z,15.70
2022-10-05T08:29:14.178Z,15.71
2022-10-05T08:31:49.170Z,15.52
2022-10-05T08:34:27.961Z,15.73
2022-10-05T08:37:05.349Z,15.42
2022-10-05T08:39:40.251Z,15.66
2022-10-05T08:42:33.128Z,15.82
2022-10-05T08:45:26.114Z,16.01
2022-10-05T08:48:24.107Z,16.24
2022-10-05T08:51:19.890Z,16.50
2022-10-05T08:54:15.412Z,16.72
2022-10-05T08:56:48.819Z,16.69
2022-10-05T08:59:48.366Z,16.93
2022-10-05T09:02:34.884Z,16.91
2022-10-05T09:05:37.641Z,16.89
2022-10-05T09:08:41.609Z,16.96
2022-10-05T09:11:21.063Z,17.25
2022-10-05T09:14:26.207Z,17.30
2022-10-05T09:17:23.196Z,17.38
2022-10-05T09:20:14.768Z,17.65
2022-10-05T09:23:03.381Z,17.75
2022-10-05T09:25:46.238Z,17.82
2022-10-05T09:28:27.791Z,17.95
2022-10-05T09:31:09.569Z,17.97
2022-10-05T09:34:12.419Z,17.91
2022-10-05T09:37:12.593Z,18.19
2022-10-05T09:40:12.813Z,18.20
2022-10-05T09:43:13.549Z,18.26
2022-10-05T09:46:16.790Z,18.31
2022-10-05T09:49:13.706Z,18.50
2022-10-05T09:52:16.445Z,18.75
2022-10-05T09:55:27.150Z,18.58
2022-10-05T09:58:32.138Z,18.66
2022-10-05T10:01:36.723Z,18.88
2022-10-05T10:04:30.560Z,19.02
2022-10-05T10:07:30.028Z,19.09
2022-10-05T10:10:34.406Z,19.28
2022-10-05T10:13:28.657Z,19.58
2022-10-05T10:16:20.300Z,19.66
2022-10-05T10:19:12.682Z,20.14
2022-10-05T10:22:09.509Z,20.40
2022-10-05T10:24:58.740Z,20.96
2022-10-05T10:27:48.017Z,21.21
2022-10-05T10:30:36.383Z,21.91
2022-10-05T10:33:40.471Z,22.79
2022-10-05T10:36:16.159Z,23.46
2022-10-05T10:38:58.655Z,24.12
2022-10-05T10:42:03.514Z,24.91
2022-10-05T10:45:02.616Z,25.53
2022-10-05T10:47:47.315Z,25.94
2022-10-05T10:50:52.673Z,26.92
2022-10-05T10:53:45.880Z,27.28
2022-10-05T10:56:29.716Z,27.70
2022-10-05T10:59:30.701Z,28.19
2022-10-05T11:02:37.472Z,28.41
2022-10-05T11:05:28.685Z,28.81
2022-10-05T11:08:27.787Z,29.48
2022-10-05T11:11:36.388Z,30.01
2022-10-05T11:14:36.523Z,29.73
2022-10-05T11:17:29.561Z,29.34
2022-10-05T11:20:20.700Z,29.00
2022-10-05T11:23:00.479Z,28.73
2022-10-05T11:25:55.961Z,28.40
2022-10-05T11:28:48.313Z,27.15
2022-10-05T11:31:39.431Z,27.34
2022-10-05T11:34:47.059Z,26.67
2022-10-05T11:37:55.329Z,26.34
2022-10-05T11:41:04.592Z,25.99
2022-10-05T11:43:54.986Z,25.93
2022-10-05T11:46:30.744Z,25.58
2022-10-05T11:49:24.954Z,25.52
2022-10-05T11:52:03.578Z,25.41
2022-10-05T11:55:12.052Z,25.37
2022-10-05T11:57:51.283Z,25.37
2022-10-05T12:00:23.213Z,25.20
2022-10-05T12:03:23.386Z,24.86
2022-10-05T12:06:08.615Z,25.03
2022-10-05T12:08:50.990Z,25.03
2022-10-05T12:11:39.806Z,24.86
2022-10-05T12:14:20.367Z,24.70
2022-10-05T12:16:59.024Z,24.61
2022-10-05T12:19:37.460Z,24.55
2022-10-05T12:22:16.084Z,24.56
2022-10-05T12:25:03.015Z,24.52
2022-10-05T12:27:40.861Z,24.62
2022-10-05T12:30:21.367Z,24.81
2022-10-05T12:33:02.226Z,24.68
2022-10-05T12:35:53.514Z,24.66
2022-10-05T12:38:29.858Z,24.63
2022-10-05T12:41:10.847Z,24.80
2022-10-05T12:43:53.959Z,24.73
2022-10-05T12:46:33.158Z,24.80
2022-10-05T12:49:21.491Z,24.78
2022-10-05T12:51:59.339Z,24.77
2022-10-05T12:54:41.219Z,24.64
2022-10-05T12:57:18.355Z,24.46
2022-10-05T12:59:57.424Z,24.59
2022-10-05T13:02:41.517Z,24.52
2022-10-05T13:05:23.957Z,24.44
2022-10-05T13:08:09.090Z,24.24
2022-10-05T13:10:45.560Z,24.41
2022-10-05T13:13:31.898Z,24.32
2022-10-05T13:16:09.711Z,24.34
2022-10-05T13:18:51.936Z,24.22
2022-10-05T13:21:27.543Z,24.34
2022-10-05T13:24:07.130Z,24.25
2022-10-05T13:26:41.400Z,24.20
2022-10-05T13:29:22.500Z,24.18
2022-10-05T13:31:57.199Z,24.20
2022-10-05T13:34:38.793Z,24.07
2022-10-05T13:37:20.895Z,24.08
2022-10-05T13:40:05.562Z,24.11
2022-10-05T13:42:43.035Z,24.05
2022-10-05T13:45:19.989Z,23.96
2022-10-05T13:48:11.856Z,23.95
2022-10-05T13:50:51.240Z,23.90
2022-10-05T13:53:30.978Z,23.81
2022-10-05T13:56:02.866Z,23.80
2022-10-05T13:58:38.640Z,23.80
2022-10-05T14:01:16.926Z,23.72
2022-10-05T14:04:12.924Z,23.71
2022-10-05T14:06:45.560Z,23.71
2022-10-05T14:09:29.255Z,23.71
2022-10-05T14:12:15.176Z,23.60
2022-10-05T14:14:51.711Z,23.61
2022-10-05T14:17:39.539Z,23.43
2022-10-05T14:20:26.764Z,23.55
2022-10-05T14:23:03.947Z,23.53
2022-10-05T14:25:34.522Z,23.42
2022-10-05T14:28:07.522Z,23.52
2022-10-05T14:30:37.808Z,23.38
2022-10-05T14:33:18.368Z,23.35
2022-10-05T14:35:51.925Z,23.29
2022-10-05T14:38:26.552Z,23.21
2022-10-05T14:41:07.457Z,23.06
2022-10-05T14:43:38.214Z,23.02
2022-10-05T14:46:28.136Z,23.06
2022-10-05T14:49:21.233Z,22.74
2022-10-05T14:51:53.537Z,22.51
2022-10-05T14:54:37.049Z,22.42
2022-10-05T14:57:19.974Z,22.32
2022-10-05T15:00:12.802Z,22.26
2022-10-05T15:03:09.821Z,22.19
2022-10-05T15:05:44.186Z,22.11
2022-10-05T15:08:41.619Z,22.09
2022-10-05T15:11:20.034Z,22.02
2022-10-05T15:13:51.283Z,21.89
2022-10-05T15:16:22.828Z,21.84
2022-10-05T15:18:59.595Z,21.65
2022-10-05T15:21:43.711Z,21.49
2022-10-05T15:24:19.951Z,21.41
2022-10-05T15:26:55.479Z,21.49
2022-10-05T15:29:56.625Z,21.45
2022-10-05T15:32:38.242Z,21.38
2022-10-05T15:35:36.160Z,21.32
2022-10-05T15:38:17.939Z,21.20
2022-10-05T15:40:58.852Z,21.14
2022-10-05T15:43:46.729Z,21.13
2022-10-05T15:46:22.325Z,20.93
2022-10-05T15:49:02.503Z,20.85
2022-10-05T15:51:45.573Z,20.80
2022-10-05T15:54:40.284Z,20.62
2022-10-05T15:57:18.925Z,20.48
2022-10-05T16:00:01.722Z,20.39
2022-10-05T16:02:42.892Z,20.23
2022-10-05T16:05:48.594Z,20.09
2022-10-05T16:08:44.776Z,19.98
2022-10-05T16:11:25.738Z,19.91
2022-10-05T16:14:06.181Z,19.78
2022-10-05T16:16:49.940Z,19.69
2022-10-05T16:19:28.803Z,19.57
2022-10-05T16:22:06.641Z,19.50
2022-10-05T16:25:05.003Z,19.52
2022-10-05T16:27:50.658Z,19.49
2022-10-05T16:30:22.994Z,19.46
2022-10-05T16:33:06.177Z,19.30
2022-10-05T16:35:46.442Z,19.08
2022-10-05T16:38:28.960Z,19.04
2022-10-05T16:41:08.179Z,18.96
2022-10-05T16:43:49.656Z,18.87
2022-10-05T16:46:28.222Z,18.73
2022-10-05T16:49:14.530Z,18.66
2022-10-05T16:51:51.462Z,18.43
2022-10-05T16:54:24.667Z,18.47
2022-10-05T16:57:00.580Z,18.50
2022-10-05T16:59:58.379Z,18.46
2022-10-05T17:02:48.790Z,18.17
2022-10-05T17:05:39.471Z,18.14
2022-10-05T17:08:26.868Z,18.03
2022-10-05T17:11:07.557Z,17.94
2022-10-05T17:14:10.060Z,17.84
2022-10-05T17:16:50.763Z,17.90
2022-10-05T17:19:33.629Z,17.89
2022-10-05T17:22:14.522Z,17.82
2022-10-05T17:24:55.466Z,17.77
2022-10-05T17:27:35.496Z,17.63
2022-10-05T17:30:54.112Z,17.46
2022-10-05T17:33:27.792Z,17.21
2022-10-05T17:36:26.275Z,17.17
2022-10-05T17:39:16.066Z,17.16
2022-10-05T17:41:47.008Z,17.10
2022-10-05T17:44:30.913Z,17.02
2022-10-05T17:47:04.132Z,16.95
2022-10-05T17:50:11.169Z,16.87
2022-10-05T17:52:53.500Z,16.79
2022-10-05T17:55:48.082Z,16.72
2022-10-05T17:59:02.768Z,16.57
2022-10-05T18:01:35.049Z,16.57
2022-10-05T18:04:41.089Z,16.52
2022-10-05T18:07:23.347Z,16.25
2022-10-05T18:09:58.511Z,16.18
2022-10-05T18:12:53.088Z,16.20
2022-10-05T18:15:48.855Z,16.15
2022-10-05T18:19:00.629Z,16.10
2022-10-05T18:21:40.760Z,16.00
2022-10-05T18:24:45.921Z,15.94
2022-10-05T18:27:34.318Z,16.03
2022-10-05T18:30:21.117Z,16.05
2022-10-05T18:33:20.837Z,15.90
2022-10-05T18:36:03.731Z,15.84
2022-10-05T18:38:44.734Z,16.03
2022-10-05T18:41:24.223Z,16.11
2022-10-05T18:44:05.411Z,16.19
2022-10-05T18:46:49.423Z,16.38
2022-10-05T18:49:32.538Z,16.65
2022-10-05T18:52:12.664Z,16.62
2022-10-05T18:54:54.932Z,16.51
2022-10-05T18:57:53.404Z,16.42
2022-10-05T19:00:25.211Z,16.33
2022-10-05T19:03:01.672Z,16.35
2022-10-05T19:05:49.109Z,16.18
2022-10-05T19:08:32.906Z,16.07
2022-10-05T19:11:13.755Z,15.96
2022-10-05T19:13:51.182Z,15.82
2022-10-05T19:16:38.550Z,15.81
2022-10-05T19:19:30.698Z,15.69
2022-10-05T19:22:09.912Z,15.59
2022-10-05T19:24:52.373Z,15.41
2022-10-05T19:27:29.391Z,15.50
2022-10-05T19:30:15.670Z,15.32
2022-10-05T19:33:10.222Z,15.35
2022-10-05T19:36:00.980Z,15.20
2022-10-05T19:38:39.380Z,15.20
2022-10-05T19:41:17.005Z,15.13
2022-10-05T19:44:10.947Z,15.18
2022-10-05T19:46:56.779Z,15.20
2022-10-05T19:49:51.905Z,15.18
2022-10-05T19:52:31.279Z,15.23
2022-10-05T19:55:08.395Z,15.15
2022-10-05T19:57:39.114Z,15.20
2022-10-05T20:00:18.799Z,15.11
2022-10-05T20:02:50.818Z,15.18
2022-10-05T20:05:21.590Z,15.07
2022-10-05T20:07:54.192Z,15.07
2022-10-05T20:10:31.032Z,15.03
2022-10-05T20:13:02.511Z,15.05
2022-10-05T20:15:46.514Z,15.16
2022-10-05T20:18:47.257Z,15.17
2022-10-05T20:21:38.329Z,15.09
2022-10-05T20:24:15.629Z,15.07
2022-10-05T20:27:01.106Z,14.73
2022-10-05T20:29:32.077Z,14.66
2022-10-05T20:32:04.599Z,14.67
2022-10-05T20:34:35.216Z,14.68
2022-10-05T20:37:05.282Z,14.65
2022-10-05T20:39:37.735Z,14.59
2022-10-05T20:42:07.861Z,14.67
2022-10-05T20:44:38.076Z,14.65
2022-10-05T20:47:09.961Z,14.61
2022-10-05T20:49:41.602Z,14.68
2022-10-05T20:52:15.308Z,14.45
2022-10-05T20:54:48.271Z,14.45
2022-10-05T20:57:21.026Z,14.38
2022-10-05T20:59:50.801Z,14.39
2022-10-05T21:02:21.833Z,14.56
2022-10-05T21:04:52.059Z,14.45
2022-10-05T21:07:23.552Z,14.28
2022-10-05T21:09:55.924Z,14.35
2022-10-05T21:12:25.739Z,14.32
2022-10-05T21:14:55.677Z,14.47
2022-10-05T21:17:25.410Z,14.70
2022-10-05T21:19:55.182Z,14.71
2022-10-05T21:22:25.264Z,14.77
2022-10-05T21:24:58.611Z,14.92
2022-10-05T21:27:28.368Z,14.98
2022-10-05T21:29:58.108Z,14.95
2022-10-05T21:32:27.837Z,15.06
2022-10-05T21:34:57.649Z,15.11
2022-10-05T21:37:27.434Z,15.23
2022-10-05T21:39:59.933Z,15.19
2022-10-05T21:42:29.789Z,15.24
2022-10-05T21:44:59.535Z,15.24
2022-10-05T21:47:29.327Z,15.26
2022-10-05T21:50:00.521Z,15.21
2022-10-05T21:52:30.340Z,15.21
2022-10-05T21:55:02.702Z,15.22
2022-10-05T21:57:32.398Z,15.09
2022-10-05T22:00:02.261Z,15.18
2022-10-05T22:02:31.994Z,15.17
2022-10-05T22:05:01.750Z,15.10
2022-10-05T22:07:32.190Z,15.08
2022-10-05T22:10:05.876Z,15.12
2022-10-05T22:12:36.402Z,15.15
2022-10-05T22:15:07.276Z,15.08
2022-10-05T22:17:37.018Z,15.13
2022-10-05T22:20:07.457Z,15.12
2022-10-05T22:22:37.241Z,15.01
2022-10-05T22:25:10.391Z,15.09
2022-10-05T22:27:40.223Z,15.07
2022-10-05T22:30:11.502Z,14.94
2022-10-05T22:32:41.219Z,15.02
2022-10-05T22:35:11.841Z,15.02
2022-10-05T22:37:41.724Z,15.05
2022-10-05T22:40:14.619Z,15.11
2022-10-05T22:42:44.484Z,15.00
2022-10-05T22:45:14.436Z,15.06
2022-10-05T22:47:44.182Z,15.01
2022-10-05T22:50:14.035Z,14.98
2022-10-05T22:52:44.381Z,14.95
2022-10-05T22:55:16.912Z,15.03
2022-10-05T22:57:46.771Z,14.94
2022-10-05T23:00:17.008Z,14.96
2022-10-05T23:02:47.841Z,14.92
2022-10-05T23:05:17.635Z,15.01
2022-10-05T23:07:49.386Z,15.00
2022-10-05T23:10:21.945Z,14.97
2022-10-05T23:13:00.854Z,14.88
2022-10-05T23:15:30.976Z,14.92
2022-10-05T23:18:00.728Z,14.88
2022-10-05T23:20:30.546Z,14.89
2022-10-05T23:23:02.059Z,14.95
2022-10-05T23:25:34.625Z,14.92
2022-10-05T23:28:05.464Z,14.94
2022-10-05T23:30:35.326Z,14.96
2022-10-05T23:33:05.091Z,15.04
2022-10-05T23:35:34.872Z,14.98
2022-10-05T23:38:04.918Z,14.90
2022-10-05T23:40:37.364Z,14.83
2022-10-05T23:43:07.438Z,14.84
2022-10-05T23:45:37.237Z,14.83
2022-10-05T23:48:07.178Z,14.83
2022-10-05T23:50:36.888Z,14.73
2022-10-05T23:53:06.944Z,14.73
2022-10-05T23:55:40.842Z,14.78
2022-10-05T23:58:10.637Z,14.73
